createdAt,value
2023-04-08T00:00:56.926Z,5.23
2023-04-08T00:03:25.191Z,5.05
2023-04-08T00:05:54.518Z,5.13
2023-04-08T00:08:22.707Z,5.20
2023-04-08T00:10:50.641Z,5.28
2023-04-08T00:13:20.260Z,5.25
2023-04-08T00:15:48.150Z,5.21
2023-04-08T00:18:17.619Z,5.28
2023-04-08T00:20:46.428Z,5.23
2023-04-08T00:23:14.471Z,5.28
2023-04-08T00:25:42.642Z,5.24
2023-04-08T00:28:10.650Z,5.25
2023-04-08T00:30:40.012Z,5.20
2023-04-08T00:33:08.701Z,5.10
2023-04-08T00:35:36.675Z,5.25
2023-04-08T00:38:07.898Z,5.26
2023-04-08T00:40:36.395Z,5.30
2023-04-08T00:43:04.403Z,5.19
2023-04-08T00:45:32.362Z,5.06
2023-04-08T00:48:03.191Z,5.18
2023-04-08T00:50:31.479Z,5.09
2023-04-08T00:52:59.444Z,5.16
2023-04-08T00:55:27.417Z,5.18
2023-04-08T00:57:57.709Z,5.13
2023-04-08T01:00:26.217Z,5.15
2023-04-08T01:03:09.517Z,5.12
2023-04-08T01:05:54.842Z,5.24
2023-04-08T01:08:26.889Z,5.19
2023-04-08T01:11:02.384Z,5.25
2023-04-08T01:13:38.590Z,5.25
2023-04-08T01:16:07.894Z,5.17
2023-04-08T01:18:39.560Z,5.19
2023-04-08T01:21:09.066Z,5.23
2023-04-08T01:23:47.754Z,5.15
2023-04-08T01:26:25.589Z,5.24
2023-04-08T01:28:57.122Z,5.20
2023-04-08T01:31:26.796Z,5.09
2023-04-08T01:33:56.422Z,5.14
2023-04-08T01:36:26.896Z,5.06
2023-04-08T01:38:55.057Z,5.11
2023-04-08T01:41:24.912Z,5.05
2023-04-08T01:43:54.919Z,5.01
2023-04-08T01:46:23.814Z,5.01
2023-04-08T01:48:53.517Z,5.04
2023-04-08T01:51:23.461Z,5.11
2023-04-08T01:53:51.587Z,5.03
2023-04-08T01:56:28.121Z,4.99
2023-04-08T01:59:01.765Z,5.05
2023-04-08T02:01:33.736Z,5.03
2023-04-08T02:04:04.613Z,5.00
2023-04-08T02:06:33.627Z,5.07
2023-04-08T02:09:02.228Z,5.08
2023-04-08T02:11:31.692Z,5.15
2023-04-08T02:14:00.046Z,5.13
2023-04-08T02:16:44.005Z,5.14
2023-04-08T02:19:21.075Z,5.12
2023-04-08T02:21:58.645Z,5.13
2023-04-08T02:24:29.072Z,5.11
2023-04-08T02:27:00.012Z,5.08
2023-04-08T02:29:32.563Z,5.08
2023-04-08T02:32:03.225Z,5.11
2023-04-08T02:34:32.853Z,5.10
2023-04-08T02:37:00.724Z,5.07
2023-04-08T02:39:33.006Z,5.09
2023-04-08T02:42:02.369Z,5.06
2023-04-08T02:44:30.444Z,5.11
2023-04-08T02:46:58.455Z,5.15
2023-04-08T02:49:26.400Z,5.07
2023-04-08T02:51:54.289Z,5.07
2023-04-08T02:54:22.232Z,5.08
2023-04-08T02:56:50.167Z,5.11
2023-04-08T02:59:19.546Z,5.11
2023-04-08T03:01:47.654Z,5.16
2023-04-08T03:04:15.900Z,5.23
2023-04-08T03:06:43.917Z,5.29
2023-04-08T03:09:11.966Z,5.26
2023-04-08T03:11:40.043Z,5.21
2023-04-08T03:14:08.074Z,5.23
2023-04-08T03:16:37.455Z,5.26
2023-04-08T03:19:05.435Z,5.31
2023-04-08T03:21:33.508Z,5.30
2023-04-08T03:24:01.551Z,5.28
2023-04-08T03:26:29.668Z,5.26
2023-04-08T03:28:57.824Z,5.32
2023-04-08T03:31:26.985Z,5.28
2023-04-08T03:33:56.416Z,5.24
2023-04-08T03:36:24.484Z,5.23
2023-04-08T03:38:52.622Z,5.13
2023-04-08T03:41:21.201Z,5.26
2023-04-08T03:43:49.257Z,5.19
2023-04-08T03:46:17.353Z,5.22
2023-04-08T03:48:45.369Z,5.22
2023-04-08T03:51:14.729Z,5.13
2023-04-08T03:53:42.950Z,5.23
2023-04-08T03:56:11.195Z,5.28
2023-04-08T03:58:39.226Z,5.23
2023-04-08T04:01:07.263Z,5.20
2023-04-08T04:03:35.496Z,5.20
2023-04-08T04:06:03.542Z,5.16
2023-04-08T04:08:33.113Z,5.17
2023-04-08T04:11:00.935Z,5.18
2023-04-08T04:13:29.016Z,5.15
2023-04-08T04:15:57.672Z,5.13
2023-04-08T04:18:25.755Z,5.17
2023-04-08T04:20:53.860Z,5.12
2023-04-08T04:23:24.280Z,5.13
2023-04-08T04:25:53.630Z,5.21
2023-04-08T04:28:21.575Z,5.16
2023-04-08T04:30:49.571Z,5.19
2023-04-08T04:33:17.557Z,5.22
2023-04-08T04:35:45.668Z,5.20
2023-04-08T04:38:13.686Z,5.23
2023-04-08T04:40:41.752Z,5.34
2023-04-08T04:43:11.298Z,5.40
2023-04-08T04:45:39.276Z,5.36
2023-04-08T04:48:07.827Z,5.40
2023-04-08T04:50:36.022Z,5.39
2023-04-08T04:53:04.098Z,5.31
2023-04-08T04:55:32.071Z,5.35
2023-04-08T04:57:59.994Z,5.42
2023-04-08T05:00:29.281Z,5.35
2023-04-08T05:02:57.297Z,5.40
2023-04-08T05:05:26.112Z,5.42
2023-04-08T05:07:54.032Z,5.40
2023-04-08T05:10:22.228Z,5.37
2023-04-08T05:12:50.388Z,5.41
2023-04-08T05:15:18.396Z,5.40
2023-04-08T05:17:47.831Z,5.36
2023-04-08T05:20:17.550Z,5.38
2023-04-08T05:22:45.688Z,5.41
2023-04-08T05:25:13.724Z,5.43
2023-04-08T05:27:41.725Z,5.49
2023-04-08T05:30:11.184Z,5.51
2023-04-08T05:32:39.179Z,5.47
2023-04-08T05:35:10.630Z,5.47
2023-04-08T05:37:38.806Z,5.50
2023-04-08T05:40:08.591Z,5.65
2023-04-08T05:42:36.505Z,5.57
2023-04-08T05:45:05.517Z,5.65
2023-04-08T05:47:34.422Z,5.68
2023-04-08T05:50:02.415Z,5.70
2023-04-08T05:52:31.955Z,5.83
2023-04-08T05:54:59.908Z,5.81
2023-04-08T05:57:28.041Z,5.85
2023-04-08T05:59:56.058Z,5.79
2023-04-08T06:02:24.007Z,5.79
2023-04-08T06:04:52.077Z,5.90
2023-04-08T06:07:19.987Z,5.96
2023-04-08T06:09:49.240Z,5.93
2023-04-08T06:12:17.251Z,5.90
2023-04-08T06:14:45.225Z,5.90
2023-04-08T06:17:13.200Z,5.92
2023-04-08T06:19:41.581Z,5.94
2023-04-08T06:22:09.549Z,5.92
2023-04-08T06:24:37.576Z,5.98
2023-04-08T06:27:07.440Z,6.05
2023-04-08T06:29:35.491Z,6.13
2023-04-08T06:32:03.586Z,6.13
2023-04-08T06:34:31.636Z,6.21
2023-04-08T06:36:59.570Z,6.23
2023-04-08T06:39:27.504Z,6.28
2023-04-08T06:41:55.611Z,6.30
2023-04-08T06:44:25.317Z,6.23
2023-04-08T06:46:53.090Z,6.31
2023-04-08T06:49:21.083Z,6.34
2023-04-08T06:51:49.046Z,6.55
2023-04-08T06:54:17.012Z,6.47
2023-04-08T06:56:44.917Z,6.46
2023-04-08T06:59:12.819Z,6.49
2023-04-08T07:01:42.362Z,6.41
2023-04-08T07:04:10.241Z,6.43
2023-04-08T07:06:38.190Z,6.42
2023-04-08T07:09:06.803Z,6.49
2023-04-08T07:11:34.896Z,6.54
2023-04-08T07:14:02.870Z,6.63
2023-04-08T07:16:30.884Z,6.68
2023-04-08T07:19:00.342Z,6.78
2023-04-08T07:21:28.382Z,6.57
2023-04-08T07:23:56.381Z,6.53
2023-04-08T07:26:24.346Z,6.63
2023-04-08T07:28:53.011Z,6.72
2023-04-08T07:31:21.283Z,6.80
2023-04-08T07:33:49.180Z,6.81
2023-04-08T07:36:18.576Z,6.95
2023-04-08T07:38:46.679Z,7.12
2023-04-08T07:41:14.647Z,7.19
2023-04-08T07:43:42.628Z,7.45
2023-04-08T07:46:10.523Z,7.36
2023-04-08T07:48:38.632Z,7.34
2023-04-08T07:51:11.163Z,7.22
2023-04-08T07:53:41.744Z,7.27
2023-04-08T07:56:14.187Z,7.48
2023-04-08T07:58:42.895Z,7.61
2023-04-08T08:01:19.803Z,7.49
2023-04-08T08:03:48.843Z,7.43
2023-04-08T08:06:17.226Z,7.47
2023-04-08T08:08:46.971Z,7.50
2023-04-08T08:11:14.991Z,7.48
2023-04-08T08:13:42.933Z,7.50
2023-04-08T08:16:12.079Z,7.62
2023-04-08T08:18:41.083Z,7.94
2023-04-08T08:21:13.595Z,8.42
2023-04-08T08:23:41.697Z,8.69
2023-04-08T08:26:11.888Z,8.99
2023-04-08T08:28:40.541Z,8.98
2023-04-08T08:31:08.605Z,8.52
2023-04-08T08:33:36.923Z,8.38
2023-04-08T08:36:05.989Z,8.26
2023-04-08T08:38:34.456Z,8.44
2023-04-08T08:41:04.132Z,8.28
2023-04-08T08:43:34.553Z,8.08
2023-04-08T08:46:03.309Z,8.34
2023-04-08T08:48:32.568Z,8.18
2023-04-08T08:51:00.908Z,7.98
2023-04-08T08:53:34.421Z,8.09
2023-04-08T08:58:36.208Z,8.15
2023-04-08T09:01:04.187Z,8.26
2023-04-08T09:03:32.628Z,8.33
2023-04-08T09:06:03.838Z,8.40
2023-04-08T09:08:33.930Z,8.60
2023-04-08T09:11:17.050Z,8.62
2023-04-08T09:13:48.005Z,8.80
2023-04-08T09:16:18.928Z,8.71
2023-04-08T09:18:49.647Z,8.61
2023-04-08T09:21:19.102Z,8.72
2023-04-08T09:23:49.634Z,8.74
2023-04-08T09:26:21.975Z,8.64
2023-04-08T09:29:14.333Z,8.52
2023-04-08T09:31:56.190Z,8.66
2023-04-08T09:34:25.505Z,8.58
2023-04-08T09:36:54.772Z,8.64
2023-04-08T09:39:22.843Z,9.10
2023-04-08T09:41:52.960Z,9.14
2023-04-08T09:44:24.712Z,8.90
2023-04-08T09:47:03.377Z,9.24
2023-04-08T09:49:38.962Z,9.39
2023-04-08T09:52:12.075Z,9.53
2023-04-08T09:54:49.144Z,9.21
2023-04-08T09:57:23.991Z,9.40
2023-04-08T10:00:02.225Z,9.76
2023-04-08T10:02:34.364Z,9.70
2023-04-08T10:05:08.141Z,9.85
2023-04-08T10:07:37.836Z,10.09
2023-04-08T10:10:07.970Z,10.12
2023-04-08T10:12:37.450Z,10.44
2023-04-08T10:15:28.193Z,10.30
2023-04-08T10:17:57.867Z,10.09
2023-04-08T10:20:45.778Z,10.13
2023-04-08T10:23:16.123Z,10.47
2023-04-08T10:25:45.378Z,10.49
2023-04-08T10:28:27.446Z,10.17
2023-04-08T10:30:58.682Z,10.12
2023-04-08T10:33:47.649Z,10.24
2023-04-08T10:36:16.450Z,10.23
2023-04-08T10:38:44.477Z,10.36
2023-04-08T10:41:14.024Z,10.56
2023-04-08T10:43:42.195Z,10.44
2023-04-08T10:46:12.999Z,10.82
2023-04-08T10:48:41.044Z,11.01
2023-04-08T10:51:08.973Z,10.85
2023-04-08T10:53:39.641Z,10.99
2023-04-08T10:56:10.926Z,11.06
2023-04-08T10:58:50.475Z,11.17
2023-04-08T11:01:21.266Z,11.54
2023-04-08T11:03:50.463Z,11.55
2023-04-08T11:06:19.419Z,11.50
2023-04-08T11:08:47.674Z,11.45
2023-04-08T11:11:16.318Z,11.29
2023-04-08T11:13:53.430Z,11.45
2023-04-08T11:16:41.547Z,11.62
2023-04-08T11:19:09.793Z,11.50
2023-04-08T11:21:39.199Z,11.36
2023-04-08T11:24:14.373Z,11.56
2023-04-08T11:26:43.923Z,11.96
2023-04-08T11:29:16.861Z,12.14
2023-04-08T11:31:47.245Z,12.23
2023-04-08T11:34:24.870Z,12.54
2023-04-08T11:36:53.254Z,12.39
2023-04-08T11:39:24.260Z,12.36
2023-04-08T11:41:53.266Z,12.40
2023-04-08T11:44:21.738Z,12.01
2023-04-08T11:46:57.235Z,12.73
2023-04-08T11:49:25.655Z,12.51
2023-04-08T11:51:59.409Z,12.93
2023-04-08T11:54:29.016Z,13.00
2023-04-08T11:56:58.267Z,12.79
2023-04-08T11:59:28.911Z,12.61
2023-04-08T12:01:59.022Z,12.52
2023-04-08T12:04:27.344Z,12.37
2023-04-08T12:06:56.916Z,12.31
2023-04-08T12:09:26.315Z,12.41
2023-04-08T12:11:54.225Z,12.48
2023-04-08T12:14:26.835Z,12.67
2023-04-08T12:16:56.105Z,12.32
2023-04-08T12:19:25.621Z,12.32
2023-04-08T12:21:53.560Z,12.26
2023-04-08T12:24:21.916Z,12.42
2023-04-08T12:26:49.812Z,12.78
2023-04-08T12:29:17.761Z,12.82
2023-04-08T12:31:45.803Z,12.49
2023-04-08T12:34:13.784Z,12.48
2023-04-08T12:36:43.083Z,12.71
2023-04-08T12:39:11.127Z,12.74
2023-04-08T12:41:39.126Z,12.58
2023-04-08T12:44:07.793Z,12.48
2023-04-08T12:46:35.876Z,12.20
2023-04-08T12:49:05.262Z,12.64
2023-04-08T12:51:33.524Z,12.85
2023-04-08T12:54:03.609Z,13.17
2023-04-08T12:56:32.023Z,13.33
2023-04-08T12:59:01.023Z,13.47
2023-04-08T13:01:35.323Z,12.90
2023-04-08T13:04:14.670Z,12.81
2023-04-08T13:06:42.704Z,12.83
2023-04-08T13:09:12.195Z,12.83
2023-04-08T13:11:40.205Z,13.03
2023-04-08T13:14:08.486Z,13.11
2023-04-08T13:16:37.115Z,13.24
2023-04-08T13:19:05.224Z,13.03
2023-04-08T13:21:33.194Z,13.07
2023-04-08T13:24:01.143Z,13.47
2023-04-08T13:26:30.537Z,13.86
2023-04-08T13:28:58.647Z,13.94
2023-04-08T13:31:27.208Z,13.59
2023-04-08T13:33:57.998Z,13.80
2023-04-08T13:36:29.042Z,13.69
2023-04-08T13:38:57.535Z,13.86
2023-04-08T13:41:28.034Z,14.35
2023-04-08T13:43:57.627Z,14.56
2023-04-08T13:46:25.783Z,14.54
2023-04-08T13:48:54.010Z,14.40
2023-04-08T13:51:22.145Z,14.28
2023-04-08T13:53:50.224Z,14.41
2023-04-08T13:56:18.144Z,13.83
2023-04-08T13:58:52.302Z,13.45
2023-04-08T14:01:26.182Z,13.29
2023-04-08T14:03:54.220Z,13.04
2023-04-08T14:06:22.304Z,12.94
2023-04-08T14:08:50.465Z,12.86
2023-04-08T14:11:18.586Z,12.96
2023-04-08T14:13:46.569Z,12.83
2023-04-08T14:16:15.433Z,12.78
2023-04-08T14:18:44.789Z,12.84
2023-04-08T14:21:14.153Z,13.16
2023-04-08T14:23:42.463Z,13.17
2023-04-08T14:26:10.395Z,13.76
2023-04-08T14:28:38.347Z,13.83
2023-04-08T14:31:06.374Z,13.75
2023-04-08T14:33:34.320Z,13.84
2023-04-08T14:36:03.802Z,13.92
2023-04-08T14:38:31.784Z,13.86
2023-04-08T14:40:59.742Z,13.52
2023-04-08T14:43:27.669Z,13.55
2023-04-08T14:45:55.789Z,13.79
2023-04-08T14:48:25.753Z,14.14
2023-04-08T14:50:53.686Z,14.08
2023-04-08T14:53:23.334Z,13.58
2023-04-08T14:55:51.418Z,13.23
2023-04-08T14:58:20.364Z,12.98
2023-04-08T15:00:48.694Z,12.83
2023-04-08T15:03:18.018Z,12.99
2023-04-08T15:05:46.292Z,13.06
2023-04-08T15:08:14.549Z,13.39
2023-04-08T15:10:43.853Z,13.38
2023-04-08T15:13:11.854Z,13.30
2023-04-08T15:15:39.977Z,13.47
2023-04-08T15:18:08.068Z,13.75
2023-04-08T15:20:36.181Z,13.82
2023-04-08T15:23:04.416Z,14.36
2023-04-08T15:25:32.869Z,14.19
2023-04-08T15:28:03.451Z,14.09
2023-04-08T15:30:35.507Z,14.21
2023-04-08T15:33:04.925Z,13.72
2023-04-08T15:35:33.575Z,13.33
2023-04-08T15:38:01.750Z,13.30
2023-04-08T15:40:32.111Z,13.17
2023-04-08T15:43:01.379Z,13.36
2023-04-08T15:45:29.550Z,13.64
2023-04-08T15:47:57.544Z,13.96
2023-04-08T15:50:29.163Z,14.09
2023-04-08T15:52:57.292Z,14.38
2023-04-08T15:55:25.302Z,15.30
2023-04-08T15:57:56.439Z,15.21
2023-04-08T16:00:26.131Z,15.57
2023-04-08T16:02:54.330Z,15.54
2023-04-08T16:05:22.565Z,15.78
2023-04-08T16:07:50.563Z,16.63
2023-04-08T16:10:18.768Z,16.06
2023-04-08T16:12:47.278Z,15.13
2023-04-08T16:15:15.524Z,14.26
2023-04-08T16:17:44.789Z,13.74
2023-04-08T16:20:13.007Z,13.42
2023-04-08T16:22:40.954Z,13.52
2023-04-08T16:25:09.723Z,13.38
2023-04-08T16:27:38.336Z,13.32
2023-04-08T16:30:07.865Z,13.34
2023-04-08T16:32:35.864Z,13.28
2023-04-08T16:35:06.013Z,13.15
2023-04-08T16:37:34.009Z,13.21
2023-04-08T16:40:03.124Z,12.88
2023-04-08T16:42:31.173Z,12.83
2023-04-08T16:44:59.757Z,12.61
2023-04-08T16:47:27.773Z,12.59
2023-04-08T16:49:55.945Z,12.36
2023-04-08T16:52:25.366Z,12.30
2023-04-08T16:54:53.398Z,12.18
2023-04-08T16:57:21.351Z,12.45
2023-04-08T16:59:49.274Z,12.28
2023-04-08T17:02:17.310Z,12.19
2023-04-08T17:04:45.329Z,12.14
2023-04-08T17:07:14.578Z,12.21
2023-04-08T17:09:44.363Z,12.30
2023-04-08T17:12:12.299Z,12.12
2023-04-08T17:14:40.546Z,12.16
2023-04-08T17:17:08.451Z,12.16
2023-04-08T17:19:36.621Z,11.62
2023-04-08T17:22:04.648Z,11.55
2023-04-08T17:24:32.631Z,11.53
2023-04-08T17:27:02.070Z,11.42
2023-04-08T17:29:30.096Z,11.45
2023-04-08T17:31:57.994Z,11.52
2023-04-08T17:34:26.341Z,11.42
2023-04-08T17:36:54.339Z,11.37
2023-04-08T17:39:22.233Z,11.31
2023-04-08T17:41:50.157Z,11.40
2023-04-08T17:44:19.478Z,11.42
2023-04-08T17:46:47.387Z,11.40
2023-04-08T17:49:15.356Z,10.89
2023-04-08T17:51:43.274Z,10.80
2023-04-08T17:54:11.619Z,10.72
2023-04-08T17:56:39.840Z,10.68
2023-04-08T17:59:07.741Z,10.59
2023-04-08T18:01:37.552Z,10.53
2023-04-08T18:04:08.191Z,10.48
2023-04-08T18:06:36.613Z,10.61
2023-04-08T18:09:05.177Z,10.59
2023-04-08T18:11:33.222Z,10.46
2023-04-08T18:14:01.159Z,10.36
2023-04-08T18:16:29.094Z,10.31
2023-04-08T18:18:58.386Z,10.27
2023-04-08T18:21:27.084Z,10.23
2023-04-08T18:23:55.069Z,10.24
2023-04-08T18:26:23.146Z,10.12
2023-04-08T18:28:51.116Z,10.23
2023-04-08T18:31:19.221Z,10.18
2023-04-08T18:33:47.221Z,10.19
2023-04-08T18:36:17.355Z,10.20
2023-04-08T18:38:45.640Z,10.00
2023-04-08T18:41:13.735Z,10.05
2023-04-08T18:43:41.742Z,9.94
2023-04-08T18:46:09.834Z,9.84
2023-04-08T18:48:37.779Z,9.69
2023-04-08T18:51:05.706Z,9.62
2023-04-08T18:53:35.122Z,9.63
2023-04-08T18:56:03.068Z,9.49
2023-04-08T18:58:31.431Z,9.39
2023-04-08T19:00:59.458Z,9.23
2023-04-08T19:03:27.575Z,9.25
2023-04-08T19:05:55.691Z,9.37
2023-04-08T19:08:23.808Z,9.23
2023-04-08T19:10:53.118Z,9.31
2023-04-08T19:13:22.145Z,9.22
2023-04-08T19:15:50.081Z,9.25
2023-04-08T19:18:18.056Z,9.13
2023-04-08T19:20:46.840Z,9.07
2023-04-08T19:23:15.677Z,9.01
2023-04-08T19:25:43.962Z,9.14
2023-04-08T19:28:14.285Z,8.99
2023-04-08T19:30:42.610Z,8.92
2023-04-08T19:33:10.660Z,8.94
2023-04-08T19:35:39.147Z,8.91
2023-04-08T19:38:07.110Z,8.94
2023-04-08T19:40:35.226Z,8.90
2023-04-08T19:43:03.223Z,8.84
2023-04-08T19:45:32.509Z,8.78
2023-04-08T19:48:01.164Z,8.74
2023-04-08T19:50:29.360Z,8.86
2023-04-08T19:52:57.396Z,8.92
2023-04-08T19:55:25.346Z,8.83
2023-04-08T19:57:53.907Z,8.72
2023-04-08T20:00:21.990Z,8.77
2023-04-08T20:02:51.515Z,8.68
2023-04-08T20:05:19.618Z,8.69
2023-04-08T20:07:47.647Z,8.72
2023-04-08T20:10:15.858Z,8.67
2023-04-08T20:12:43.837Z,8.65
2023-04-08T20:15:23.597Z,8.61
2023-04-08T20:17:54.550Z,8.57
2023-04-08T20:20:23.157Z,8.51
2023-04-08T20:22:51.190Z,8.55
2023-04-08T20:25:19.491Z,8.49
2023-04-08T20:27:47.421Z,8.48
2023-04-08T20:30:15.730Z,8.48
2023-04-08T20:32:44.155Z,8.45
2023-04-08T20:35:13.735Z,8.48
2023-04-08T20:37:41.880Z,8.52
2023-04-08T20:40:11.096Z,8.53
2023-04-08T20:42:39.438Z,8.45
2023-04-08T20:45:09.372Z,8.40
2023-04-08T20:47:37.444Z,8.22
2023-04-08T20:50:06.395Z,8.06
2023-04-08T20:52:35.679Z,7.93
2023-04-08T20:55:03.674Z,7.83
2023-04-08T20:57:31.608Z,7.79
2023-04-08T20:59:59.766Z,7.82
2023-04-08T21:02:27.845Z,7.83
2023-04-08T21:04:56.061Z,7.88
2023-04-08T21:07:26.329Z,7.96
2023-04-08T21:09:55.728Z,7.93
2023-04-08T21:12:23.795Z,7.95
2023-04-08T21:14:51.841Z,7.95
2023-04-08T21:17:19.811Z,7.95
2023-04-08T21:19:47.928Z,8.07
2023-04-08T21:22:16.349Z,8.13
2023-04-08T21:24:44.364Z,8.22
2023-04-08T21:27:13.665Z,8.13
2023-04-08T21:29:41.611Z,8.07
2023-04-08T21:32:09.667Z,8.13
2023-04-08T21:34:37.615Z,8.15
2023-04-08T21:37:06.074Z,8.24
2023-04-08T21:39:34.112Z,8.18
2023-04-08T21:42:02.572Z,8.07
2023-04-08T21:44:31.888Z,7.99
2023-04-08T21:47:01.697Z,8.07
2023-04-08T21:49:30.694Z,8.02
2023-04-08T21:51:58.604Z,8.10
2023-04-08T21:54:26.408Z,8.07
2023-04-08T21:56:54.332Z,8.07
2023-04-08T21:59:22.200Z,8.02
2023-04-08T22:01:51.609Z,8.02
2023-04-08T22:04:20.503Z,7.95
2023-04-08T22:06:49.280Z,7.93
2023-04-08T22:09:17.832Z,7.84
2023-04-08T22:11:45.975Z,7.77
2023-04-08T22:14:13.853Z,7.68
2023-04-08T22:16:42.146Z,7.65
2023-04-08T22:19:11.706Z,7.59
2023-04-08T22:21:39.636Z,7.44
2023-04-08T22:24:07.821Z,7.36
2023-04-08T22:26:35.836Z,7.26
2023-04-08T22:29:03.777Z,7.15
2023-04-08T22:31:31.741Z,7.05
2023-04-08T22:33:59.845Z,7.04
2023-04-08T22:36:29.230Z,6.97
2023-04-08T22:38:57.193Z,6.86
2023-04-08T22:41:25.605Z,6.77
2023-04-08T22:43:53.674Z,6.72
2023-04-08T22:46:21.591Z,6.72
2023-04-08T22:48:50.176Z,6.69
2023-04-08T22:51:18.301Z,6.64
2023-04-08T22:53:47.664Z,6.65
2023-04-08T22:56:15.599Z,6.63
2023-04-08T22:58:43.652Z,6.56
2023-04-08T23:01:13.899Z,6.52
2023-04-08T23:03:42.470Z,6.53
2023-04-08T23:06:10.826Z,6.46
2023-04-08T23:08:38.921Z,6.49
2023-04-08T23:11:08.584Z,6.42
2023-04-08T23:13:36.377Z,6.26
2023-04-08T23:16:04.436Z,6.27
2023-04-08T23:18:32.494Z,6.18
2023-04-08T23:21:00.385Z,6.13
2023-04-08T23:23:28.272Z,6.15
2023-04-08T23:25:56.174Z,6.05
2023-04-08T23:28:25.516Z,5.97
2023-04-08T23:30:53.534Z,5.95
2023-04-08T23:33:21.611Z,5.93
2023-04-08T23:35:49.633Z,5.92
2023-04-08T23:38:17.743Z,5.84
2023-04-08T23:40:45.814Z,5.78
2023-04-08T23:43:13.803Z,5.88
2023-04-08T23:45:43.227Z,5.91
2023-04-08T23:48:11.131Z,5.83
2023-04-08T23:50:39.144Z,5.74
2023-04-08T23:53:07.039Z,5.77
2023-04-08T23:55:35.054Z,5.63
2023-04-08T23:58:02.973Z,5.63
